Time;durP1;ratioP1;P1;durP2;ratioP2;P2;SDS_P1;SDS_P2;PMS_P1;PMS_P2;Temp;Humidity;BMP_temperature;BMP_pressure;BME280_temperature;BME280_humidity;BME280_pressure;Samples;Min_cycle;Max_cycle;Signal;HPM_P1;HPM_P2
2021/05/27 00:02:06;;;;;;;7.73;3.93;;;;;;;11.64;69.29;99442.11;234699;1174;114703;-66
2021/05/27 00:07:10;;;;;;;4.00;2.80;;;;;;;11.51;69.31;99445.17;233984;1174;115411;-68
2021/05/27 00:12:14;;;;;;;5.10;3.60;;;;;;;11.46;69.40;99439.76;233956;1174;116844;-67
2021/05/27 00:17:17;;;;;;;5.93;3.95;;;;;;;11.45;69.50;99440.81;232586;1174;116415;-70
2021/05/27 00:22:20;;;;;;;3.63;3.28;;;;;;;11.36;69.72;99444.95;232641;1174;117171;-68
2021/05/27 00:27:23;;;;;;;6.73;3.93;;;;;;;11.25;69.73;99443.22;232624;1174;116111;-71
2021/05/27 00:32:27;;;;;;;4.60;3.23;;;;;;;11.23;69.86;99440.80;232593;1175;216366;-69
2021/05/27 00:37:30;;;;;;;5.40;3.70;;;;;;;11.21;69.75;99450.09;232583;1175;115980;-68
2021/05/27 00:42:34;;;;;;;4.23;3.57;;;;;;;11.18;69.93;99440.72;232674;1174;117839;-70
2021/05/27 00:47:39;;;;;;;3.35;2.80;;;;;;;11.11;69.96;99438.22;232801;1174;116205;-68
2021/05/27 00:52:44;;;;;;;7.90;3.83;;;;;;;11.12;69.95;99453.17;232691;1167;115971;-69
2021/05/27 00:57:47;;;;;;;3.35;2.73;;;;;;;11.10;70.22;99447.27;232744;1176;117215;-69
2021/05/27 01:02:51;;;;;;;3.18;2.88;;;;;;;11.02;70.09;99442.34;233122;1174;116978;-69
2021/05/27 01:07:54;;;;;;;6.13;3.40;;;;;;;10.92;70.22;99447.55;232669;1174;116954;-70
2021/05/27 01:13:00;;;;;;;3.30;2.23;;;;;;;10.83;70.29;99446.34;233724;1174;115677;-68
2021/05/27 01:18:09;;;;;;;5.10;2.95;;;;;;;10.87;70.60;99442.14;232560;1174;116064;-68
2021/05/27 01:23:14;;;;;;;6.07;3.33;;;;;;;10.89;70.21;99437.37;232492;1173;116282;-68
2021/05/27 01:28:18;;;;;;;4.30;2.83;;;;;;;10.88;70.34;99433.09;234230;1174;115226;-67
2021/05/27 01:33:23;;;;;;;4.27;2.90;;;;;;;10.86;70.42;99431.71;233838;1169;115243;-65
2021/05/27 01:38:30;;;;;;;5.30;3.48;;;;;;;10.83;70.77;99430.34;234266;1170;116078;-65
2021/05/27 01:43:34;;;;;;;4.68;3.08;;;;;;;10.87;70.65;99428.80;233787;1174;116510;-67
2021/05/27 01:48:37;;;;;;;5.73;3.40;;;;;;;10.82;70.64;99431.39;234106;1170;116941;-67
2021/05/27 01:53:42;;;;;;;2.63;2.43;;;;;;;10.72;70.83;99423.22;233897;1175;116101;-67
2021/05/27 01:58:46;;;;;;;6.28;3.38;;;;;;;10.68;70.95;99430.92;235043;1174;117245;-67
2021/05/27 02:03:50;;;;;;;5.00;3.50;;;;;;;10.72;71.31;99426.70;235237;1174;115610;-67
2021/05/27 02:09:12;;;;;;;4.70;3.70;;;;;;;10.74;71.09;99442.45;235009;1176;115949;-68
2021/05/27 02:14:19;;;;;;;4.15;2.85;;;;;;;10.72;71.15;99453.36;235165;1174;116972;-66
2021/05/27 02:19:22;;;;;;;4.38;3.33;;;;;;;10.73;70.81;99457.64;232591;1175;118963;-70
2021/05/27 02:24:26;;;;;;;4.88;3.43;;;;;;;10.74;70.90;99445.11;233319;1174;116569;-67
2021/05/27 02:29:29;;;;;;;3.55;3.05;;;;;;;10.80;71.34;99449.48;232623;1174;116939;-68
2021/05/27 02:34:32;;;;;;;6.98;4.18;;;;;;;10.80;71.55;99444.96;233306;1176;117545;-68
2021/05/27 02:39:36;;;;;;;3.60;3.30;;;;;;;10.81;70.92;99451.10;233668;1174;118253;-69
2021/05/27 02:44:38;;;;;;;6.80;4.00;;;;;;;10.82;71.55;99447.39;233071;1174;116353;-69
2021/05/27 02:49:42;;;;;;;5.37;3.63;;;;;;;10.82;71.36;99454.58;232644;1174;115866;-69
2021/05/27 02:54:45;;;;;;;3.25;2.95;;;;;;;10.76;71.60;99456.34;232998;1175;115829;-69
2021/05/27 02:59:49;;;;;;;3.40;2.43;;;;;;;10.76;71.81;99451.02;233022;1175;117362;-68
2021/05/27 03:04:54;;;;;;;3.50;2.80;;;;;;;10.80;71.31;99460.15;232740;1175;116499;-69
2021/05/27 03:09:57;;;;;;;3.75;2.30;;;;;;;10.79;71.72;99461.20;232563;1174;116280;-68
2021/05/27 03:15:01;;;;;;;2.13;1.85;;;;;;;10.77;71.62;99465.96;232592;1174;115551;-69
2021/05/27 03:20:05;;;;;;;3.40;2.20;;;;;;;10.77;71.43;99476.63;232842;1174;115483;-69
2021/05/27 03:25:11;;;;;;;3.35;3.05;;;;;;;10.81;71.40;99480.43;232799;1174;174401;-70
2021/05/27 03:30:15;;;;;;;4.30;3.05;;;;;;;10.83;71.98;99481.00;233801;1174;117833;-68
2021/05/27 03:35:19;;;;;;;12.08;3.35;;;;;;;10.86;71.68;99487.70;232699;1174;115850;-68
2021/05/27 03:40:22;;;;;;;7.05;2.68;;;;;;;10.91;71.63;99490.46;234273;1174;116082;-68
2021/05/27 03:45:28;;;;;;;3.73;2.50;;;;;;;10.99;71.79;99487.39;234054;1174;115340;-67
2021/05/27 03:50:32;;;;;;;5.70;3.18;;;;;;;10.99;71.63;99480.20;234124;1174;114828;-68
2021/05/27 03:55:34;;;;;;;3.30;2.18;;;;;;;11.02;71.92;99487.69;234775;1174;115073;-68
2021/05/27 04:00:43;;;;;;;2.93;2.55;;;;;;;11.06;71.28;99496.02;235250;1174;115116;-67
2021/05/27 04:11:10;;;;;;;1.53;1.40;;;;;;;11.33;71.43;99488.14;233530;1174;115188;-69
2021/05/27 04:16:13;;;;;;;1.80;1.43;;;;;;;11.48;71.30;99485.70;233839;1174;120669;-68
2021/05/27 04:21:18;;;;;;;3.00;1.40;;;;;;;11.57;70.87;99494.91;232636;1174;115569;-67
2021/05/27 04:26:20;;;;;;;7.88;2.38;;;;;;;11.67;70.43;99502.22;233520;1174;116091;-67
2021/05/27 04:31:23;;;;;;;4.70;1.63;;;;;;;11.68;70.53;99499.30;232944;1174;116216;-69
2021/05/27 04:36:27;;;;;;;4.23;1.90;;;;;;;14.86;67.74;99505.51;232607;1174;116058;-66
2021/05/27 04:41:32;;;;;;;1.95;1.83;;;;;;;15.25;66.45;99508.45;233425;1174;115870;-66
2021/05/27 04:46:37;;;;;;;0.80;0.80;;;;;;;16.06;64.52;99511.72;232597;1174;116289;-68
2021/05/27 04:51:41;;;;;;;1.73;1.63;;;;;;;15.62;64.04;99513.48;232609;1174;115982;-67
2021/05/27 04:56:44;;;;;;;1.18;1.13;;;;;;;15.53;63.19;99523.97;232468;1174;116232;-67
2021/05/27 05:01:47;;;;;;;0.83;0.83;;;;;;;16.39;62.11;99523.66;232903;1174;115740;-67
2021/05/27 05:06:50;;;;;;;2.68;1.40;;;;;;;20.31;58.18;99540.85;232402;1174;115939;-66
2021/05/27 05:11:53;;;;;;;1.20;1.10;;;;;;;19.14;57.64;99541.16;232720;1174;115465;-68
2021/05/27 05:16:56;;;;;;;2.55;1.13;;;;;;;21.10;55.55;99549.34;233087;1174;115321;-66
2021/05/27 05:21:59;;;;;;;2.57;1.53;;;;;;;20.78;54.57;99558.53;232650;1174;115787;-66
2021/05/27 05:27:02;;;;;;;1.90;1.05;;;;;;;21.93;52.65;99555.88;233295;1174;207953;-67
2021/05/27 05:32:05;;;;;;;1.95;1.30;;;;;;;20.56;52.82;99566.59;233199;1174;116564;-71
2021/05/27 05:37:07;;;;;;;1.70;0.97;;;;;;;19.73;52.88;99574.75;232503;1174;116522;-66
2021/05/27 05:42:10;;;;;;;1.05;1.05;;;;;;;24.52;48.33;99569.14;232526;1174;115971;-68
2021/05/27 05:47:13;;;;;;;3.80;1.10;;;;;;;26.86;45.41;99567.31;233097;1174;115994;-68
2021/05/27 05:52:16;;;;;;;1.17;1.17;;;;;;;29.53;41.39;99572.49;232718;1174;115761;-68
2021/05/27 05:57:20;;;;;;;0.75;0.73;;;;;;;31.59;38.85;99580.08;233518;1174;115777;-70
2021/05/27 06:02:23;;;;;;;0.97;0.67;;;;;;;32.62;36.42;99586.42;232626;1174;115733;-71
2021/05/27 06:07:25;;;;;;;0.73;0.73;;;;;;;32.96;33.47;99585.03;233896;1174;115755;-70
2021/05/27 06:12:28;;;;;;;0.98;0.60;;;;;;;32.09;33.26;99598.67;233749;1174;115806;-70
2021/05/27 06:17:31;;;;;;;1.40;0.78;;;;;;;32.35;32.01;99594.95;233737;1174;115772;-71
2021/05/27 06:22:33;;;;;;;1.88;0.95;;;;;;;32.72;31.03;99602.23;234886;1174;117018;-71
2021/05/27 06:27:38;;;;;;;0.95;0.78;;;;;;;32.77;30.57;99599.13;234533;1174;115417;-69
2021/05/27 06:32:43;;;;;;;0.80;0.70;;;;;;;33.09;30.83;99611.10;233946;1173;115794;-73
2021/05/27 06:37:47;;;;;;;0.75;0.73;;;;;;;33.31;29.46;99617.54;234956;1174;116307;-71
2021/05/27 06:42:51;;;;;;;0.48;0.45;;;;;;;33.58;28.06;99626.28;232648;1174;115693;-71
2021/05/27 06:47:55;;;;;;;0.47;0.47;;;;;;;32.33;28.85;99632.36;232597;1174;115943;-70
2021/05/27 06:53:03;;;;;;;1.00;0.58;;;;;;;30.96;28.88;99644.27;233132;1174;116170;-72
2021/05/27 06:58:09;;;;;;;0.80;0.80;;;;;;;29.54;30.00;99640.00;233788;1174;116250;-72
2021/05/27 07:03:21;;;;;;;1.70;0.90;;;;;;;29.14;30.13;99649.38;233187;1174;115791;-67
2021/05/27 07:08:23;;;;;;;0.83;0.83;;;;;;;28.29;30.70;99643.91;232442;1174;120968;-69
2021/05/27 07:13:25;;;;;;;2.95;1.20;;;;;;;28.68;30.82;99642.09;232539;1176;115784;-66
2021/05/27 07:18:27;;;;;;;1.28;1.20;;;;;;;28.50;31.61;99647.95;232726;1174;116222;-66
2021/05/27 07:23:31;;;;;;;1.17;1.17;;;;;;;28.07;31.61;99646.11;233849;1174;117035;-67
2021/05/27 07:28:34;;;;;;;1.13;1.13;;;;;;;27.16;31.67;99651.47;232855;1174;115734;-69
2021/05/27 07:33:38;;;;;;;1.95;1.40;;;;;;;25.62;32.73;99660.51;233060;1175;115320;-67
2021/05/27 07:38:41;;;;;;;1.80;1.50;;;;;;;25.55;33.87;99651.27;233598;1174;115925;-68
2021/05/27 07:43:43;;;;;;;1.90;1.80;;;;;;;25.16;33.99;99656.90;232502;1174;116164;-69
2021/05/27 07:48:45;;;;;;;1.73;1.58;;;;;;;24.72;34.68;99663.78;232298;1174;116757;-69
2021/05/27 07:53:48;;;;;;;2.93;1.53;;;;;;;24.20;35.06;99663.20;233450;1174;116409;-68
2021/05/27 07:58:51;;;;;;;3.40;1.80;;;;;;;23.81;35.65;99667.83;232795;1174;116011;-65
2021/05/27 08:03:55;;;;;;;1.50;1.40;;;;;;;23.64;36.80;99673.30;233544;1167;117563;-67
2021/05/27 08:08:59;;;;;;;2.48;1.40;;;;;;;23.75;36.41;99680.01;233578;1174;115960;-68
2021/05/27 08:14:03;;;;;;;2.07;1.93;;;;;;;23.82;36.63;99684.97;234470;1174;116793;-71
2021/05/27 08:19:08;;;;;;;1.40;1.30;;;;;;;23.60;37.36;99685.94;235155;1174;117085;-69
2021/05/27 08:24:11;;;;;;;4.78;1.93;;;;;;;23.45;36.80;99694.58;235162;1174;116511;-70
2021/05/27 08:29:14;;;;;;;1.90;1.80;;;;;;;23.12;36.96;99700.50;233693;1174;117157;-68
2021/05/27 08:34:19;;;;;;;2.08;1.93;;;;;;;22.58;36.62;99704.52;234903;1174;115916;-66
2021/05/27 08:39:22;;;;;;;2.10;2.00;;;;;;;22.25;37.43;99701.35;234916;1176;116744;-71
2021/05/27 08:44:25;;;;;;;5.85;2.40;;;;;;;22.14;37.59;99708.16;234073;1170;116454;-71
2021/05/27 08:49:29;;;;;;;3.30;2.50;;;;;;;21.90;38.08;99721.25;233964;1171;116029;-69
2021/05/27 08:54:34;;;;;;;2.00;1.90;;;;;;;21.83;38.51;99722.48;232339;1174;117883;-66
2021/05/27 08:59:38;;;;;;;1.80;1.70;;;;;;;22.01;39.12;99722.63;233551;1174;115238;-66
2021/05/27 09:04:41;;;;;;;2.58;1.88;;;;;;;22.04;38.54;99724.70;233101;1170;114890;-67
2021/05/27 09:09:56;;;;;;;2.30;2.20;;;;;;;21.51;37.93;99714.59;233237;1174;115376;-68
2021/05/27 09:15:01;;;;;;;6.50;1.98;;;;;;;21.19;38.84;99723.69;233481;1171;115745;-71
2021/05/27 09:20:12;;;;;;;1.95;1.58;;;;;;;21.13;39.37;99720.28;233263;1173;115468;-70
2021/05/27 09:25:31;;;;;;;2.05;1.90;;;;;;;21.57;39.66;99721.50;232589;1174;116427;-70
2021/05/27 09:30:54;;;;;;;2.18;2.00;;;;;;;21.31;39.54;99739.47;233759;1174;114809;-71
2021/05/27 09:36:05;;;;;;;2.23;2.05;;;;;;;20.81;39.40;99745.63;232385;1174;117183;-69
2021/05/27 09:41:27;;;;;;;2.58;2.38;;;;;;;20.56;39.92;99745.33;233785;1174;114860;-69
2021/05/27 09:46:49;;;;;;;2.05;1.95;;;;;;;20.96;40.14;99747.23;233418;1174;115553;-71
2021/05/27 09:51:55;;;;;;;2.73;1.93;;;;;;;21.05;40.50;99747.33;233662;1170;115428;-70
2021/05/27 09:56:59;;;;;;;2.08;1.98;;;;;;;20.68;39.61;99751.06;233296;1174;116152;-69
2021/05/27 10:02:15;;;;;;;1.85;1.75;;;;;;;20.67;39.70;99749.45;232596;1174;115853;-69
2021/05/27 10:07:36;;;;;;;2.88;2.03;;;;;;;20.16;39.83;99748.48;233355;1168;117651;-69
2021/05/27 10:13:00;;;;;;;2.73;2.20;;;;;;;20.15;40.31;99759.59;233679;1174;115733;-70
2021/05/27 10:18:04;;;;;;;1.93;1.70;;;;;;;20.85;41.18;99743.12;234390;1174;115683;-70
2021/05/27 10:23:08;;;;;;;2.20;2.10;;;;;;;20.69;40.28;99747.25;234972;1174;116164;-70
2021/05/27 10:28:15;;;;;;;9.28;2.63;;;;;;;20.69;40.68;99747.25;233973;1174;115919;-71
2021/05/27 10:33:21;;;;;;;2.47;2.30;;;;;;;20.62;40.15;99752.27;232326;1174;115776;-70
2021/05/27 10:38:39;;;;;;;3.45;2.15;;;;;;;20.53;40.14;99754.85;233427;1174;115644;-71
2021/05/27 10:44:08;;;;;;;4.37;2.43;;;;;;;20.58;40.42;99741.22;232666;1170;115164;-70
2021/05/27 10:49:11;;;;;;;4.65;2.03;;;;;;;20.46;40.17;99752.56;232430;1172;116725;-70
2021/05/27 10:54:27;;;;;;;2.10;1.50;;;;;;;20.29;40.23;99751.48;233487;1174;114853;-70
2021/05/27 10:59:32;;;;;;;1.10;1.05;;;;;;;20.73;40.50;99749.06;232835;1177;115516;-69
2021/05/27 11:04:39;;;;;;;1.10;1.05;;;;;;;20.53;38.95;99756.76;232604;1169;115405;-68
2021/05/27 11:09:45;;;;;;;1.70;1.60;;;;;;;20.33;39.02;99756.02;232631;1174;116434;-68
2021/05/27 11:14:51;;;;;;;1.58;1.15;;;;;;;20.41;40.24;99755.36;232554;1174;115839;-67
2021/05/27 11:25:12;;;;;;;1.87;1.37;;;;;;;20.37;39.04;99759.77;233188;1174;116462;-66
2021/05/27 11:30:33;;;;;;;1.43;1.33;;;;;;;20.89;38.69;99762.28;232514;1174;115815;-69
2021/05/27 11:35:42;;;;;;;1.18;1.08;;;;;;;20.88;38.61;99761.48;232672;1174;116370;-68
2021/05/27 11:40:49;;;;;;;1.58;1.33;;;;;;;21.35;38.64;99759.45;232816;1174;115835;-69
2021/05/27 11:45:55;;;;;;;1.20;1.20;;;;;;;20.88;37.45;99764.19;233663;1174;114832;-70
2021/05/27 11:51:08;;;;;;;4.78;1.58;;;;;;;20.32;37.53;99764.43;233910;1174;117676;-70
2021/05/27 11:56:30;;;;;;;1.57;1.50;;;;;;;20.41;38.31;99749.95;232762;1174;115793;-69
2021/05/27 12:01:34;;;;;;;2.30;1.60;;;;;;;20.85;38.19;99745.83;233874;1174;115260;-69
2021/05/27 12:07:02;;;;;;;1.60;1.50;;;;;;;20.94;37.52;99743.22;233512;1174;115530;-70
2021/05/27 12:12:12;;;;;;;1.28;1.23;;;;;;;21.10;37.83;99737.16;233409;1174;115933;-70
2021/05/27 12:17:28;;;;;;;1.53;1.43;;;;;;;21.29;37.90;99733.55;235125;1174;114927;-70
2021/05/27 12:22:47;;;;;;;2.30;1.70;;;;;;;21.74;37.26;99739.80;234978;1174;115578;-70
2021/05/27 12:27:53;;;;;;;1.45;1.38;;;;;;;21.37;37.08;99736.34;233845;1174;116587;-69
2021/05/27 12:33:00;;;;;;;1.43;1.35;;;;;;;21.15;36.60;99736.25;233864;1174;116666;-71
2021/05/27 12:38:07;;;;;;;3.25;2.95;;;;;;;21.31;37.18;99742.18;233763;1174;115928;-71
2021/05/27 12:43:26;;;;;;;1.68;1.43;;;;;;;21.42;37.23;99740.83;234161;1174;116332;-70
2021/05/27 12:48:33;;;;;;;1.63;1.53;;;;;;;21.13;37.18;99747.39;232343;1174;115944;-69
2021/05/27 12:53:50;;;;;;;2.48;1.55;;;;;;;20.84;37.85;99749.64;232569;1174;115343;-68
2021/05/27 12:59:06;;;;;;;1.63;1.30;;;;;;;20.62;38.49;99752.27;232770;1173;115424;-69
2021/05/27 13:04:33;;;;;;;1.40;1.40;;;;;;;20.82;38.95;99746.42;232619;1169;115368;-70
2021/05/27 13:09:44;;;;;;;1.75;1.65;;;;;;;20.96;38.07;99752.66;233187;1174;116224;-69
2021/05/27 13:15:09;;;;;;;3.43;1.80;;;;;;;20.72;38.38;99743.94;232921;1174;115257;-70
2021/05/27 13:20:15;;;;;;;1.45;1.43;;;;;;;20.58;39.16;99743.13;233176;1174;139510;-69
2021/05/27 13:25:19;;;;;;;1.90;1.70;;;;;;;20.59;39.50;99744.73;232953;1174;116295;-68
2021/05/27 13:30:36;;;;;;;1.67;1.57;;;;;;;20.68;39.44;99751.86;232726;1174;116154;-69
2021/05/27 13:35:43;;;;;;;2.40;1.80;;;;;;;20.58;39.13;99751.25;232450;1174;118026;-69
2021/05/27 13:40:48;;;;;;;1.88;1.60;;;;;;;20.33;39.30;99745.19;232579;1175;117207;-69
2021/05/27 13:45:53;;;;;;;1.80;1.23;;;;;;;20.19;39.31;99744.34;232782;1174;117346;-69
2021/05/27 13:50:56;;;;;;;1.50;1.40;;;;;;;20.11;40.26;99740.45;233377;1174;115382;-69
2021/05/27 13:56:01;;;;;;;1.37;1.37;;;;;;;20.00;39.93;99741.70;232481;1174;115875;-69
2021/05/27 14:01:07;;;;;;;1.93;1.58;;;;;;;19.89;40.30;99747.57;232597;1174;116353;-69
2021/05/27 14:06:10;;;;;;;2.17;1.70;;;;;;;19.87;40.40;99745.19;233293;1175;116860;-69
2021/05/27 14:11:14;;;;;;;1.20;1.20;;;;;;;20.11;40.80;99736.94;232432;1174;116663;-69
2021/05/27 14:16:18;;;;;;;1.27;1.20;;;;;;;20.09;40.08;99741.84;232588;1169;116021;-69
2021/05/27 14:21:23;;;;;;;2.25;1.60;;;;;;;19.73;40.35;99749.73;232629;1175;117638;-69
2021/05/27 14:26:26;;;;;;;1.90;1.55;;;;;;;19.43;40.50;99737.45;232528;1174;116196;-69
2021/05/27 14:31:42;;;;;;;4.33;2.60;;;;;;;19.24;40.40;99742.06;233290;1176;116470;-69
2021/05/27 14:36:46;;;;;;;6.43;2.53;;;;;;;19.27;41.45;99738.75;232656;1176;116945;-69
2021/05/27 14:41:51;;;;;;;1.00;1.00;;;;;;;19.25;40.72;99743.67;233627;1174;115817;-69
2021/05/27 14:46:55;;;;;;;1.07;1.00;;;;;;;19.21;40.96;99734.54;232978;1174;116621;-69
2021/05/27 14:52:00;;;;;;;1.10;1.10;;;;;;;19.19;41.49;99734.83;232655;1175;117101;-69
2021/05/27 14:57:05;;;;;;;1.48;1.38;;;;;;;19.39;41.68;99734.53;233154;1174;117164;-69
2021/05/27 15:02:14;;;;;;;1.15;1.15;;;;;;;19.63;41.20;99742.58;232622;1175;116530;-69
2021/05/27 15:07:19;;;;;;;2.18;1.65;;;;;;;19.55;41.26;99742.46;232782;1175;116324;-69
2021/05/27 15:12:22;;;;;;;2.38;1.30;;;;;;;19.56;41.40;99731.35;232708;1174;117092;-69
2021/05/27 15:17:25;;;;;;;1.55;1.30;;;;;;;19.63;41.62;99737.16;233209;1174;116807;-69
2021/05/27 15:22:33;;;;;;;1.60;1.50;;;;;;;19.40;41.34;99733.44;232493;1176;116867;-69
2021/05/27 15:27:37;;;;;;;1.80;1.03;;;;;;;19.06;41.44;99732.83;232922;1174;116591;-70
2021/05/27 15:32:43;;;;;;;3.00;1.65;;;;;;;18.77;41.80;99732.94;232451;1170;116686;-69
2021/05/27 15:37:51;;;;;;;2.10;1.50;;;;;;;18.50;42.43;99731.59;232654;1176;116399;-69
2021/05/27 15:42:55;;;;;;;1.78;1.68;;;;;;;18.30;42.83;99726.42;232784;1174;115682;-69
2021/05/27 15:47:58;;;;;;;1.60;1.50;;;;;;;18.13;42.99;99726.03;232557;1170;116343;-69
2021/05/27 15:53:03;;;;;;;1.88;1.28;;;;;;;18.04;44.09;99725.84;233579;1174;115992;-69
2021/05/27 15:58:07;;;;;;;1.30;1.23;;;;;;;17.96;43.63;99722.97;232669;1174;115899;-69
2021/05/27 16:03:10;;;;;;;1.58;1.48;;;;;;;17.88;44.31;99723.58;232712;1174;115989;-70
2021/05/27 16:08:14;;;;;;;1.53;1.45;;;;;;;17.71;45.01;99732.89;233578;1174;115183;-68
2021/05/27 16:13:17;;;;;;;1.47;1.37;;;;;;;17.65;46.38;99731.31;232876;1174;115236;-71
2021/05/27 16:18:20;;;;;;;1.37;1.37;;;;;;;17.73;45.70;99733.38;234389;1167;116228;-71
2021/05/27 16:23:27;;;;;;;1.50;1.25;;;;;;;17.92;45.25;99725.42;234459;1176;115940;-70
2021/05/27 16:28:30;;;;;;;1.40;1.30;;;;;;;18.07;45.57;99730.67;233480;1174;115237;-68
2021/05/27 16:33:45;;;;;;;1.53;1.37;;;;;;;18.19;44.76;99735.70;234881;1174;115804;-72
2021/05/27 16:38:48;;;;;;;2.45;1.30;;;;;;;18.17;44.88;99732.48;233898;1174;116177;-70
2021/05/27 16:43:51;;;;;;;1.85;1.35;;;;;;;18.11;44.28;99734.41;232969;1175;117409;-70
2021/05/27 16:48:55;;;;;;;1.70;1.60;;;;;;;18.07;44.29;99727.17;232618;1175;116080;-68
2021/05/27 16:53:57;;;;;;;4.48;1.50;;;;;;;17.94;44.79;99735.94;232432;1174;116954;-68
2021/05/27 16:59:00;;;;;;;1.50;1.40;;;;;;;17.81;44.97;99730.09;232660;1173;115937;-67
2021/05/27 17:04:04;;;;;;;4.30;1.40;;;;;;;17.63;44.98;99732.64;233127;1174;117792;-67
2021/05/27 17:09:07;;;;;;;1.60;1.10;;;;;;;17.51;45.49;99731.09;232580;1174;115358;-65
2021/05/27 17:14:10;;;;;;;1.50;1.40;;;;;;;17.35;45.98;99736.88;232909;1174;115743;-66
2021/05/27 17:19:13;;;;;;;3.35;1.68;;;;;;;17.17;45.65;99733.73;232741;1174;115529;-66
2021/05/27 17:24:16;;;;;;;1.13;1.07;;;;;;;17.12;45.75;99738.38;233403;1174;118871;-67
2021/05/27 17:29:19;;;;;;;1.23;1.15;;;;;;;17.05;46.34;99741.36;233049;1174;115761;-71
2021/05/27 17:34:24;;;;;;;1.65;1.30;;;;;;;16.96;47.01;99752.97;232483;1174;115573;-70
2021/05/27 17:39:27;;;;;;;3.10;1.67;;;;;;;16.86;46.99;99744.93;232743;1173;115959;-73
2021/05/27 17:44:35;;;;;;;1.47;1.47;;;;;;;16.73;47.78;99751.73;233007;1174;116345;-71
2021/05/27 17:49:38;;;;;;;1.68;1.58;;;;;;;16.62;48.23;99753.60;232459;1174;115870;-68
2021/05/27 17:54:41;;;;;;;1.50;1.40;;;;;;;16.47;49.02;99750.97;232400;1174;115706;-68
2021/05/27 17:59:44;;;;;;;5.58;2.18;;;;;;;16.26;49.78;99746.69;232523;1174;116210;-68
2021/05/27 18:04:50;;;;;;;1.40;1.30;;;;;;;16.02;50.11;99747.26;233690;1174;115496;-69
2021/05/27 18:09:55;;;;;;;;;;;;;;;15.78;50.73;99746.20;232586;1174;115315;-68
2021/05/27 18:14:58;;;;;;;3.23;1.65;;;;;;;15.50;51.12;99750.17;233872;1173;103082;-65
2021/05/27 18:20:04;;;;;;;2.30;1.50;;;;;;;15.23;51.55;99750.39;235178;1174;115441;-65
2021/05/27 18:25:08;;;;;;;1.20;1.20;;;;;;;14.93;52.37;99761.84;233489;1174;117133;-66
2021/05/27 18:30:13;;;;;;;1.53;1.53;;;;;;;14.67;53.13;99762.80;234314;1177;117048;-67
2021/05/27 18:35:17;;;;;;;1.15;1.10;;;;;;;14.38;54.14;99768.47;234609;1174;116196;-68
2021/05/27 18:40:22;;;;;;;1.43;1.38;;;;;;;14.14;54.36;99767.24;234937;1174;116527;-68
2021/05/27 18:45:26;;;;;;;1.65;1.63;;;;;;;13.88;55.19;99768.92;234183;1174;115760;-68
2021/05/27 18:50:29;;;;;;;4.20;3.33;;;;;;;13.65;55.82;99777.30;233676;1174;116147;-68
2021/05/27 18:55:35;;;;;;;6.07;1.87;;;;;;;13.48;56.45;99790.77;232683;1174;114962;-71
2021/05/27 19:00:40;;;;;;;2.30;2.20;;;;;;;13.45;57.00;99820.76;233812;1174;114992;-66
2021/05/27 19:05:48;;;;;;;9.80;2.30;;;;;;;13.53;56.65;99847.06;233882;1174;115809;-66
2021/05/27 19:10:52;;;;;;;;;;;;;;;13.60;57.04;99850.37;232715;1171;115313;-68
2021/05/27 19:15:58;;;;;;;5.30;2.17;;;;;;;13.61;56.58;99857.34;234096;1174;103133;-67
2021/05/27 19:21:04;;;;;;;1.98;1.85;;;;;;;13.66;56.97;99857.41;232684;1174;115748;-66
2021/05/27 19:26:11;;;;;;;2.68;1.95;;;;;;;13.66;56.70;99857.41;233149;1174;116381;-65
2021/05/27 19:31:15;;;;;;;2.03;1.93;;;;;;;13.64;57.42;99856.84;232990;1174;115388;-65
2021/05/27 19:36:19;;;;;;;2.98;2.68;;;;;;;13.64;57.46;99866.75;233061;1174;116632;-67
2021/05/27 19:41:23;;;;;;;1.85;1.75;;;;;;;13.62;57.74;99875.03;232620;1174;116645;-68
2021/05/27 19:46:27;;;;;;;2.13;2.03;;;;;;;13.56;57.47;99867.99;233555;1174;115620;-67
2021/05/27 19:51:31;;;;;;;2.90;2.70;;;;;;;13.57;58.00;99861.58;232510;1174;115147;-66
2021/05/27 19:56:35;;;;;;;3.70;3.40;;;;;;;13.60;57.77;99862.95;232846;1174;115319;-67
2021/05/27 20:01:38;;;;;;;2.43;2.23;;;;;;;13.57;58.42;99874.97;233352;1174;115433;-65
2021/05/27 20:06:42;;;;;;;6.30;3.13;;;;;;;13.49;58.28;99880.77;233096;1174;116503;-67
2021/05/27 20:11:46;;;;;;;3.85;2.50;;;;;;;13.38;58.76;99889.75;232638;1174;115801;-65
2021/05/27 20:16:50;;;;;;;4.35;3.18;;;;;;;13.29;59.08;99885.88;234229;1174;115756;-67
2021/05/27 20:21:55;;;;;;;6.83;4.10;;;;;;;13.17;59.14;99883.31;234453;1174;115502;-68
2021/05/27 20:27:04;;;;;;;6.07;4.60;;;;;;;13.05;59.55;99886.09;235141;1174;115781;-67
2021/05/27 20:32:09;;;;;;;10.35;4.25;;;;;;;13.02;59.68;99891.93;234923;1174;115019;-67
2021/05/27 20:37:12;;;;;;;5.30;4.63;;;;;;;13.04;60.05;99889.81;234952;1174;115187;-71
2021/05/27 20:42:20;;;;;;;4.03;3.43;;;;;;;12.96;60.11;99887.55;235092;1174;117743;-70
2021/05/27 20:47:24;;;;;;;4.95;3.40;;;;;;;12.81;60.01;99879.33;234974;1174;115673;-70
2021/05/27 20:52:29;;;;;;;27.57;12.80;;;;;;;12.68;60.54;99880.47;234454;1174;114655;-70
2021/05/27 20:57:33;;;;;;;19.50;8.67;;;;;;;12.51;61.31;99877.01;232647;1174;116149;-69
2021/05/27 21:02:37;;;;;;;41.88;17.60;;;;;;;12.37;61.59;99881.05;234357;1174;115830;-71
2021/05/27 21:07:44;;;;;;;7.20;4.40;;;;;;;12.38;62.13;99879.99;232657;1174;116668;-70
2021/05/27 21:12:48;;;;;;;3.60;3.30;;;;;;;12.47;62.70;99878.55;233438;1174;115673;-68
2021/05/27 21:17:55;;;;;;;3.10;2.80;;;;;;;12.55;62.85;99886.14;232811;1171;115784;-70
2021/05/27 21:22:58;;;;;;;4.37;2.50;;;;;;;12.47;62.78;99882.03;232663;1174;115047;-70
2021/05/27 21:28:02;;;;;;;2.53;2.33;;;;;;;12.35;62.88;99886.63;233352;1174;116626;-72
2021/05/27 21:33:06;;;;;;;2.68;2.15;;;;;;;12.17;63.31;99891.41;232474;1174;115833;-71
2021/05/27 21:38:11;;;;;;;2.63;2.40;;;;;;;12.03;63.53;99898.91;232377;1174;115941;-71
2021/05/27 21:43:15;;;;;;;2.65;2.45;;;;;;;12.03;63.60;99898.91;233222;1174;115068;-71
2021/05/27 21:48:18;;;;;;;2.13;2.00;;;;;;;12.01;63.67;99906.34;232471;1174;115685;-72
2021/05/27 21:53:23;;;;;;;5.73;4.25;;;;;;;11.89;63.79;99910.95;232517;1174;115426;-69
2021/05/27 21:58:27;;;;;;;32.80;7.70;;;;;;;11.77;64.33;99917.13;232547;1174;115905;-71
2021/05/27 22:03:32;;;;;;;4.50;3.97;;;;;;;11.73;64.65;99921.30;233143;1174;115319;-72
2021/05/27 22:08:36;;;;;;;2.85;2.65;;;;;;;11.79;64.98;99917.71;232626;1174;116125;-72
2021/05/27 22:13:40;;;;;;;5.03;3.43;;;;;;;11.83;65.04;99919.91;232819;1174;115955;-69
2021/05/27 22:18:46;;;;;;;13.35;7.48;;;;;;;11.72;64.79;99927.68;233664;1167;115507;-71
2021/05/27 22:23:52;;;;;;;5.50;4.50;;;;;;;11.62;65.03;99918.66;233787;1174;115902;-69
2021/05/27 22:28:57;;;;;;;9.50;4.38;;;;;;;11.53;64.80;99926.24;233737;1174;115953;-68
2021/05/27 22:34:01;;;;;;;4.37;3.43;;;;;;;11.46;65.26;99920.22;234213;1174;115240;-68
2021/05/27 22:39:06;;;;;;;3.83;3.00;;;;;;;11.43;65.01;99926.84;235203;1174;115281;-70
2021/05/27 22:44:09;;;;;;;2.53;2.35;;;;;;;11.32;65.24;99924.17;235188;1174;114801;-71
2021/05/27 22:49:13;;;;;;;6.10;3.48;;;;;;;11.17;65.11;99919.34;235182;1174;114765;-69
2021/05/27 22:54:17;;;;;;;5.73;3.03;;;;;;;11.03;65.21;99931.28;234829;1167;116067;-69
2021/05/27 22:59:20;;;;;;;3.63;3.33;;;;;;;10.87;65.52;99926.66;234321;1171;116834;-69
2021/05/27 23:04:24;;;;;;;4.37;3.83;;;;;;;10.80;65.68;99922.25;233731;1170;116916;-69
2021/05/27 23:09:27;;;;;;;3.35;3.05;;;;;;;10.69;66.31;99919.59;233719;1176;116592;-69
2021/05/27 23:14:30;;;;;;;3.83;3.50;;;;;;;10.63;66.45;99920.52;232588;1175;116552;-71
2021/05/27 23:19:34;;;;;;;4.25;3.95;;;;;;;10.62;66.86;99924.22;233023;1175;116196;-73
2021/05/27 23:24:39;;;;;;;7.73;4.50;;;;;;;10.65;66.72;99918.43;232533;1175;117651;-73
2021/05/27 23:29:43;;;;;;;4.30;3.63;;;;;;;10.61;66.92;99917.27;232605;1174;116000;-70
2021/05/27 23:34:47;;;;;;;4.33;3.93;;;;;;;10.46;67.16;99928.35;233076;1174;117458;-71